sensor_id;sensor_type;location;lat;lon;timestamp;temperature;humidity
19168;DHT22;9716;53.114;18.040;2022-09-02T00:02:23;12.60;99.90
19168;DHT22;9716;53.114;18.040;2022-09-02T00:04:52;12.60;99.90
19168;DHT22;9716;53.114;18.040;2022-09-02T00:07:20;12.60;99.90
19168;DHT22;9716;53.114;18.040;2022-09-02T00:09:49;12.50;99.90
19168;DHT22;9716;53.114;18.040;2022-09-02T00:12:17;12.50;99.90
19168;DHT22;9716;53.114;18.040;2022-09-02T00:14:47;12.50;99.90
19168;DHT22;9716;53.114;18.040;2022-09-02T00:17:16;12.40;99.90
19168;DHT22;9716;53.114;18.040;2022-09-02T00:19:44;12.40;99.90
19168;DHT22;9716;53.114;18.040;2022-09-02T00:22:12;12.40;99.90
19168;DHT22;9716;53.114;18.040;2022-09-02T00:24:41;12.40;99.90
19168;DHT22;9716;53.114;18.040;2022-09-02T00:27:09;12.30;99.90
19168;DHT22;9716;53.114;18.040;2022-09-02T00:29:38;12.30;99.90
19168;DHT22;9716;53.114;18.040;2022-09-02T00:32:08;12.30;99.90
19168;DHT22;9716;53.114;18.040;2022-09-02T00:34:36;12.30;99.90
19168;DHT22;9716;53.114;18.040;2022-09-02T00:37:05;12.30;99.90
19168;DHT22;9716;53.114;18.040;2022-09-02T00:39:33;12.20;99.90
19168;DHT22;9716;53.114;18.040;2022-09-02T00:42:02;12.20;99.90
19168;DHT22;9716;53.114;18.040;2022-09-02T00:44:31;12.20;99.90
19168;DHT22;9716;53.114;18.040;2022-09-02T00:47:00;12.20;99.90
19168;DHT22;9716;53.114;18.040;2022-09-02T00:49:32;12.10;99.90
19168;DHT22;9716;53.114;18.040;2022-09-02T00:52:05;12.10;99.90
19168;DHT22;9716;53.114;18.040;2022-09-02T00:54:38;12.10;99.90
19168;DHT22;9716;53.114;18.040;2022-09-02T00:57:11;12.10;99.90
19168;DHT22;9716;53.114;18.040;2022-09-02T00:59:45;12.00;99.90
19168;DHT22;9716;53.114;18.040;2022-09-02T01:02:16;12.00;99.90
19168;DHT22;9716;53.114;18.040;2022-09-02T01:04:46;12.00;99.90
19168;DHT22;9716;53.114;18.040;2022-09-02T01:07:14;12.00;99.90
19168;DHT22;9716;53.114;18.040;2022-09-02T01:09:43;11.90;99.90
19168;DHT22;9716;53.114;18.040;2022-09-02T01:12:11;11.90;99.90
19168;DHT22;9716;53.114;18.040;2022-09-02T01:14:41;11.90;99.90
19168;DHT22;9716;53.114;18.040;2022-09-02T01:17:09;11.90;99.90
19168;DHT22;9716;53.114;18.040;2022-09-02T01:19:41;11.80;99.90
19168;DHT22;9716;53.114;18.040;2022-09-02T01:22:17;11.80;99.90
19168;DHT22;9716;53.114;18.040;2022-09-02T01:24:46;11.80;99.90
19168;DHT22;9716;53.114;18.040;2022-09-02T01:27:17;11.80;99.90
19168;DHT22;9716;53.114;18.040;2022-09-02T01:29:50;11.80;99.90
19168;DHT22;9716;53.114;18.040;2022-09-02T01:32:19;11.80;99.90
19168;DHT22;9716;53.114;18.040;2022-09-02T01:34:47;11.80;99.90
19168;DHT22;9716;53.114;18.040;2022-09-02T01:37:18;11.70;99.90
19168;DHT22;9716;53.114;18.040;2022-09-02T01:39:47;11.70;99.90
19168;DHT22;9716;53.114;18.040;2022-09-02T01:42:16;11.70;99.90
19168;DHT22;9716;53.114;18.040;2022-09-02T01:44:45;11.60;99.90
19168;DHT22;9716;53.114;18.040;2022-09-02T01:47:17;11.60;99.90
19168;DHT22;9716;53.114;18.040;2022-09-02T01:49:47;11.60;99.90
19168;DHT22;9716;53.114;18.040;2022-09-02T01:52:19;11.60;99.90
19168;DHT22;9716;53.114;18.040;2022-09-02T01:54:48;11.60;99.90
19168;DHT22;9716;53.114;18.040;2022-09-02T01:57:16;11.50;99.90
19168;DHT22;9716;53.114;18.040;2022-09-02T01:59:45;11.50;99.90
19168;DHT22;9716;53.114;18.040;2022-09-02T02:02:13;11.50;99.90
19168;DHT22;9716;53.114;18.040;2022-09-02T02:04:43;11.50;99.90
19168;DHT22;9716;53.114;18.040;2022-09-02T02:07:12;11.50;99.90
19168;DHT22;9716;53.114;18.040;2022-09-02T02:09:43;11.50;99.90
19168;DHT22;9716;53.114;18.040;2022-09-02T02:12:11;11.50;99.90
19168;DHT22;9716;53.114;18.040;2022-09-02T02:14:40;11.40;99.90
19168;DHT22;9716;53.114;18.040;2022-09-02T02:17:09;11.40;99.90
19168;DHT22;9716;53.114;18.040;2022-09-02T02:19:37;11.40;99.90
19168;DHT22;9716;53.114;18.040;2022-09-02T02:22:06;11.40;99.90
19168;DHT22;9716;53.114;18.040;2022-09-02T02:24:35;11.30;99.90
19168;DHT22;9716;53.114;18.040;2022-09-02T02:27:05;11.30;99.90
19168;DHT22;9716;53.114;18.040;2022-09-02T02:29:34;11.30;99.90
19168;DHT22;9716;53.114;18.040;2022-09-02T02:32:02;11.30;99.90
19168;DHT22;9716;53.114;18.040;2022-09-02T02:34:31;11.20;99.90
19168;DHT22;9716;53.114;18.040;2022-09-02T02:37:00;11.20;99.90
19168;DHT22;9716;53.114;18.040;2022-09-02T02:39:28;11.20;99.90
19168;DHT22;9716;53.114;18.040;2022-09-02T02:41:57;11.20;99.90
19168;DHT22;9716;53.114;18.040;2022-09-02T02:44:27;11.20;99.90
19168;DHT22;9716;53.114;18.040;2022-09-02T02:46:57;11.10;99.90
19168;DHT22;9716;53.114;18.040;2022-09-02T02:49:26;11.10;99.90
19168;DHT22;9716;53.114;18.040;2022-09-02T02:51:55;11.10;99.90
19168;DHT22;9716;53.114;18.040;2022-09-02T02:54:23;11.10;99.90
19168;DHT22;9716;53.114;18.040;2022-09-02T02:57:01;11.10;99.90
19168;DHT22;9716;53.114;18.040;2022-09-02T02:59:31;11.10;99.90
19168;DHT22;9716;53.114;18.040;2022-09-02T03:02:00;11.00;99.90
19168;DHT22;9716;53.114;18.040;2022-09-02T03:04:29;11.00;99.90
19168;DHT22;9716;53.114;18.040;2022-09-02T03:06:57;11.00;99.90
19168;DHT22;9716;53.114;18.040;2022-09-02T03:09:26;11.00;99.90
19168;DHT22;9716;53.114;18.040;2022-09-02T03:11:55;11.00;99.90
19168;DHT22;9716;53.114;18.040;2022-09-02T03:14:23;11.00;99.90
19168;DHT22;9716;53.114;18.040;2022-09-02T03:16:54;11.00;99.90
19168;DHT22;9716;53.114;18.040;2022-09-02T03:19:22;11.00;99.90
19168;DHT22;9716;53.114;18.040;2022-09-02T03:21:51;10.90;99.90
19168;DHT22;9716;53.114;18.040;2022-09-02T03:24:19;10.90;99.90
19168;DHT22;9716;53.114;18.040;2022-09-02T03:26:49;10.90;99.90
19168;DHT22;9716;53.114;18.040;2022-09-02T03:29:17;10.90;99.90
19168;DHT22;9716;53.114;18.040;2022-09-02T03:31:46;10.80;99.90
19168;DHT22;9716;53.114;18.040;2022-09-02T03:34:17;10.80;99.90
19168;DHT22;9716;53.114;18.040;2022-09-02T03:36:46;10.80;99.90
19168;DHT22;9716;53.114;18.040;2022-09-02T03:39:14;10.80;99.90
19168;DHT22;9716;53.114;18.040;2022-09-02T03:41:43;10.80;99.90
19168;DHT22;9716;53.114;18.040;2022-09-02T03:44:11;10.80;99.90
19168;DHT22;9716;53.114;18.040;2022-09-02T03:46:40;10.70;99.90
19168;DHT22;9716;53.114;18.040;2022-09-02T03:49:08;10.70;99.90
19168;DHT22;9716;53.114;18.040;2022-09-02T03:51:41;10.70;99.90
19168;DHT22;9716;53.114;18.040;2022-09-02T03:54:10;10.70;99.90
19168;DHT22;9716;53.114;18.040;2022-09-02T03:56:38;10.70;99.90
19168;DHT22;9716;53.114;18.040;2022-09-02T03:59:07;10.70;99.90
19168;DHT22;9716;53.114;18.040;2022-09-02T04:01:36;10.70;99.90
19168;DHT22;9716;53.114;18.040;2022-09-02T04:04:05;10.70;99.90
19168;DHT22;9716;53.114;18.040;2022-09-02T04:06:34;10.70;99.90
19168;DHT22;9716;53.114;18.040;2022-09-02T04:09:05;10.70;99.90
19168;DHT22;9716;53.114;18.040;2022-09-02T04:11:33;10.70;99.90
19168;DHT22;9716;53.114;18.040;2022-09-02T04:14:03;10.70;99.90
19168;DHT22;9716;53.114;18.040;2022-09-02T04:16:32;10.70;99.90
19168;DHT22;9716;53.114;18.040;2022-09-02T04:19:01;10.70;99.90
19168;DHT22;9716;53.114;18.040;2022-09-02T04:21:32;10.70;99.90
19168;DHT22;9716;53.114;18.040;2022-09-02T04:24:01;10.80;99.90
19168;DHT22;9716;53.114;18.040;2022-09-02T04:26:31;10.80;99.90
19168;DHT22;9716;53.114;18.040;2022-09-02T04:29:00;10.80;99.90
19168;DHT22;9716;53.114;18.040;2022-09-02T04:31:28;10.90;99.90
19168;DHT22;9716;53.114;18.040;2022-09-02T04:33:58;10.90;99.90
19168;DHT22;9716;53.114;18.040;2022-09-02T04:36:28;11.00;99.90
19168;DHT22;9716;53.114;18.040;2022-09-02T04:38:57;11.10;99.90
19168;DHT22;9716;53.114;18.040;2022-09-02T04:41:28;11.30;99.90
19168;DHT22;9716;53.114;18.040;2022-09-02T04:43:59;11.60;99.90
19168;DHT22;9716;53.114;18.040;2022-09-02T04:46:27;11.90;99.90
19168;DHT22;9716;53.114;18.040;2022-09-02T04:49:01;12.30;99.90
19168;DHT22;9716;53.114;18.040;2022-09-02T04:51:30;12.80;99.90
19168;DHT22;9716;53.114;18.040;2022-09-02T04:53:59;13.10;99.90
19168;DHT22;9716;53.114;18.040;2022-09-02T04:56:30;13.50;99.90
19168;DHT22;9716;53.114;18.040;2022-09-02T04:59:00;14.00;99.90
19168;DHT22;9716;53.114;18.040;2022-09-02T05:01:30;14.30;99.90
19168;DHT22;9716;53.114;18.040;2022-09-02T05:03:59;14.60;99.90
19168;DHT22;9716;53.114;18.040;2022-09-02T05:06:29;14.90;99.90
19168;DHT22;9716;53.114;18.040;2022-09-02T05:08:58;15.20;99.90
19168;DHT22;9716;53.114;18.040;2022-09-02T05:11:29;15.40;99.90
19168;DHT22;9716;53.114;18.040;2022-09-02T05:14:01;15.60;99.90
19168;DHT22;9716;53.114;18.040;2022-09-02T05:16:33;15.80;99.90
19168;DHT22;9716;53.114;18.040;2022-09-02T05:19:03;16.00;99.90
19168;DHT22;9716;53.114;18.040;2022-09-02T05:21:32;16.20;99.90
19168;DHT22;9716;53.114;18.040;2022-09-02T05:24:00;16.50;99.90
19168;DHT22;9716;53.114;18.040;2022-09-02T05:26:29;16.80;99.90
19168;DHT22;9716;53.114;18.040;2022-09-02T05:29:04;17.20;99.90
19168;DHT22;9716;53.114;18.040;2022-09-02T05:31:34;17.50;99.90
19168;DHT22;9716;53.114;18.040;2022-09-02T05:34:03;17.70;99.90
19168;DHT22;9716;53.114;18.040;2022-09-02T05:36:31;18.00;99.90
19168;DHT22;9716;53.114;18.040;2022-09-02T05:39:00;18.20;99.90
19168;DHT22;9716;53.114;18.040;2022-09-02T05:41:29;18.20;99.90
19168;DHT22;9716;53.114;18.040;2022-09-02T05:43:59;18.30;99.90
19168;DHT22;9716;53.114;18.040;2022-09-02T05:46:31;18.40;99.90
19168;DHT22;9716;53.114;18.040;2022-09-02T05:49:00;18.60;99.90
19168;DHT22;9716;53.114;18.040;2022-09-02T05:51:41;18.90;99.90
19168;DHT22;9716;53.114;18.040;2022-09-02T05:54:13;19.10;99.90
19168;DHT22;9716;53.114;18.040;2022-09-02T05:56:43;19.20;99.90
19168;DHT22;9716;53.114;18.040;2022-09-02T05:59:12;19.30;99.90
19168;DHT22;9716;53.114;18.040;2022-09-02T06:01:42;19.30;99.90
19168;DHT22;9716;53.114;18.040;2022-09-02T06:04:11;19.40;99.90
19168;DHT22;9716;53.114;18.040;2022-09-02T06:06:40;19.50;99.90
19168;DHT22;9716;53.114;18.040;2022-09-02T06:09:13;19.60;99.90
19168;DHT22;9716;53.114;18.040;2022-09-02T06:11:42;19.70;99.90
19168;DHT22;9716;53.114;18.040;2022-09-02T06:14:13;19.70;99.90
19168;DHT22;9716;53.114;18.040;2022-09-02T06:16:44;19.90;99.90
19168;DHT22;9716;53.114;18.040;2022-09-02T06:19:13;20.10;99.60
19168;DHT22;9716;53.114;18.040;2022-09-02T06:21:47;20.40;99.00
19168;DHT22;9716;53.114;18.040;2022-09-02T06:24:16;20.70;98.30
19168;DHT22;9716;53.114;18.040;2022-09-02T06:26:45;21.00;97.60
19168;DHT22;9716;53.114;18.040;2022-09-02T06:29:14;21.20;96.80
19168;DHT22;9716;53.114;18.040;2022-09-02T06:31:46;21.50;96.10
19168;DHT22;9716;53.114;18.040;2022-09-02T06:34:15;21.70;95.40
19168;DHT22;9716;53.114;18.040;2022-09-02T06:36:46;22.00;94.70
19168;DHT22;9716;53.114;18.040;2022-09-02T06:39:17;22.30;94.10
19168;DHT22;9716;53.114;18.040;2022-09-02T06:41:47;22.50;93.40
19168;DHT22;9716;53.114;18.040;2022-09-02T06:44:17;22.80;92.70
19168;DHT22;9716;53.114;18.040;2022-09-02T06:46:53;23.00;92.00
19168;DHT22;9716;53.114;18.040;2022-09-02T06:49:24;23.20;91.30
19168;DHT22;9716;53.114;18.040;2022-09-02T06:51:56;23.30;91.00
19168;DHT22;9716;53.114;18.040;2022-09-02T06:54:27;23.30;90.60
19168;DHT22;9716;53.114;18.040;2022-09-02T06:56:55;23.30;90.40
19168;DHT22;9716;53.114;18.040;2022-09-02T06:59:24;23.40;90.10
19168;DHT22;9716;53.114;18.040;2022-09-02T07:01:54;23.50;89.60
19168;DHT22;9716;53.114;18.040;2022-09-02T07:04:24;23.60;88.80
19168;DHT22;9716;53.114;18.040;2022-09-02T07:07:11;23.80;88.40
19168;DHT22;9716;53.114;18.040;2022-09-02T07:09:40;23.90;87.40
19168;DHT22;9716;53.114;18.040;2022-09-02T07:12:08;24.10;86.40
19168;DHT22;9716;53.114;18.040;2022-09-02T07:14:39;24.30;85.50
19168;DHT22;9716;53.114;18.040;2022-09-02T07:17:11;24.40;84.20
19168;DHT22;9716;53.114;18.040;2022-09-02T07:19:44;24.40;83.70
19168;DHT22;9716;53.114;18.040;2022-09-02T07:22:12;24.50;84.00
19168;DHT22;9716;53.114;18.040;2022-09-02T07:24:45;24.70;82.70
19168;DHT22;9716;53.114;18.040;2022-09-02T07:27:13;24.80;82.00
19168;DHT22;9716;53.114;18.040;2022-09-02T07:29:41;25.00;81.00
19168;DHT22;9716;53.114;18.040;2022-09-02T07:32:15;25.20;80.20
19168;DHT22;9716;53.114;18.040;2022-09-02T07:34:44;25.30;79.50
19168;DHT22;9716;53.114;18.040;2022-09-02T07:37:13;25.40;78.80
19168;DHT22;9716;53.114;18.040;2022-09-02T07:39:42;25.70;77.70
19168;DHT22;9716;53.114;18.040;2022-09-02T07:42:11;25.80;76.90
19168;DHT22;9716;53.114;18.040;2022-09-02T07:44:40;25.90;76.20
19168;DHT22;9716;53.114;18.040;2022-09-02T07:47:08;26.10;75.40
19168;DHT22;9716;53.114;18.040;2022-09-02T07:49:39;26.00;74.70
19168;DHT22;9716;53.114;18.040;2022-09-02T07:52:28;26.00;74.40
19168;DHT22;9716;53.114;18.040;2022-09-02T07:54:57;26.10;73.50
19168;DHT22;9716;53.114;18.040;2022-09-02T07:57:25;26.30;72.20
19168;DHT22;9716;53.114;18.040;2022-09-02T07:59:54;26.50;70.40
19168;DHT22;9716;53.114;18.040;2022-09-02T08:02:23;26.40;70.80
19168;DHT22;9716;53.114;18.040;2022-09-02T08:04:53;26.20;71.40
19168;DHT22;9716;53.114;18.040;2022-09-02T08:07:21;26.30;71.10
19168;DHT22;9716;53.114;18.040;2022-09-02T08:09:51;26.50;69.20
19168;DHT22;9716;53.114;18.040;2022-09-02T08:12:19;26.60;68.80
19168;DHT22;9716;53.114;18.040;2022-09-02T08:14:49;26.70;69.00
19168;DHT22;9716;53.114;18.040;2022-09-02T08:17:17;26.80;68.70
19168;DHT22;9716;53.114;18.040;2022-09-02T08:19:46;26.80;67.70
19168;DHT22;9716;53.114;18.040;2022-09-02T08:22:16;26.90;68.00
19168;DHT22;9716;53.114;18.040;2022-09-02T08:24:44;26.90;66.90
19168;DHT22;9716;53.114;18.040;2022-09-02T08:27:12;26.80;67.10
19168;DHT22;9716;53.114;18.040;2022-09-02T08:29:41;26.80;66.10
19168;DHT22;9716;53.114;18.040;2022-09-02T08:32:10;26.60;66.60
19168;DHT22;9716;53.114;18.040;2022-09-02T08:34:39;26.40;67.20
19168;DHT22;9716;53.114;18.040;2022-09-02T08:37:08;26.30;68.00
19168;DHT22;9716;53.114;18.040;2022-09-02T08:39:38;26.20;68.30
19168;DHT22;9716;53.114;18.040;2022-09-02T08:42:11;26.10;68.30
19168;DHT22;9716;53.114;18.040;2022-09-02T08:44:42;26.00;68.70
19168;DHT22;9716;53.114;18.040;2022-09-02T08:47:14;26.00;69.10
19168;DHT22;9716;53.114;18.040;2022-09-02T08:49:46;26.00;69.20
19168;DHT22;9716;53.114;18.040;2022-09-02T08:52:21;26.10;68.40
19168;DHT22;9716;53.114;18.040;2022-09-02T08:54:55;26.00;67.50
19168;DHT22;9716;53.114;18.040;2022-09-02T08:57:25;25.90;67.90
19168;DHT22;9716;53.114;18.040;2022-09-02T08:59:56;25.80;67.50
19168;DHT22;9716;53.114;18.040;2022-09-02T09:02:33;25.80;67.80
19168;DHT22;9716;53.114;18.040;2022-09-02T09:05:20;25.60;68.80
19168;DHT22;9716;53.114;18.040;2022-09-02T09:08:11;25.50;69.30
19168;DHT22;9716;53.114;18.040;2022-09-02T09:10:55;25.40;69.20
19168;DHT22;9716;53.114;18.040;2022-09-02T09:13:45;25.60;68.60
19168;DHT22;9716;53.114;18.040;2022-09-02T09:16:21;25.70;68.30
19168;DHT22;9716;53.114;18.040;2022-09-02T09:18:58;25.60;68.10
19168;DHT22;9716;53.114;18.040;2022-09-02T09:21:31;25.50;68.00
19168;DHT22;9716;53.114;18.040;2022-09-02T09:24:05;25.40;68.40
19168;DHT22;9716;53.114;18.040;2022-09-02T09:26:38;25.60;67.50
19168;DHT22;9716;53.114;18.040;2022-09-02T09:29:08;25.70;67.50
19168;DHT22;9716;53.114;18.040;2022-09-02T09:31:37;25.80;67.10
19168;DHT22;9716;53.114;18.040;2022-09-02T09:34:06;25.90;67.50
19168;DHT22;9716;53.114;18.040;2022-09-02T09:36:45;25.90;66.90
19168;DHT22;9716;53.114;18.040;2022-09-02T09:39:25;25.90;66.80
19168;DHT22;9716;53.114;18.040;2022-09-02T09:41:56;25.80;65.50
19168;DHT22;9716;53.114;18.040;2022-09-02T09:44:41;25.50;65.90
19168;DHT22;9716;53.114;18.040;2022-09-02T09:47:17;25.20;66.40
19168;DHT22;9716;53.114;18.040;2022-09-02T09:49:49;25.10;66.90
19168;DHT22;9716;53.114;18.040;2022-09-02T09:52:22;25.10;67.20
19168;DHT22;9716;53.114;18.040;2022-09-02T09:55:07;25.20;66.70
19168;DHT22;9716;53.114;18.040;2022-09-02T09:57:41;25.20;66.90
19168;DHT22;9716;53.114;18.040;2022-09-02T10:00:26;25.30;66.80
19168;DHT22;9716;53.114;18.040;2022-09-02T10:03:00;25.30;66.30
19168;DHT22;9716;53.114;18.040;2022-09-02T10:05:33;25.10;67.00
19168;DHT22;9716;53.114;18.040;2022-09-02T10:08:04;25.10;67.40
19168;DHT22;9716;53.114;18.040;2022-09-02T10:10:55;25.10;67.20
19168;DHT22;9716;53.114;18.040;2022-09-02T10:13:27;25.20;67.80
19168;DHT22;9716;53.114;18.040;2022-09-02T10:16:09;25.30;68.10
19168;DHT22;9716;53.114;18.040;2022-09-02T10:18:45;25.50;67.50
19168;DHT22;9716;53.114;18.040;2022-09-02T10:21:27;25.50;66.50
19168;DHT22;9716;53.114;18.040;2022-09-02T10:24:03;25.40;67.80
19168;DHT22;9716;53.114;18.040;2022-09-02T10:26:42;25.40;67.20
19168;DHT22;9716;53.114;18.040;2022-09-02T10:29:46;25.40;66.80
19168;DHT22;9716;53.114;18.040;2022-09-02T10:32:43;25.40;66.80
19168;DHT22;9716;53.114;18.040;2022-09-02T10:35:22;25.40;66.80
19168;DHT22;9716;53.114;18.040;2022-09-02T10:38:03;25.50;66.90
19168;DHT22;9716;53.114;18.040;2022-09-02T10:40:37;25.60;66.40
19168;DHT22;9716;53.114;18.040;2022-09-02T10:43:14;25.40;66.50
19168;DHT22;9716;53.114;18.040;2022-09-02T10:45:53;25.30;66.70
19168;DHT22;9716;53.114;18.040;2022-09-02T10:48:41;25.00;67.30
19168;DHT22;9716;53.114;18.040;2022-09-02T10:51:15;24.70;67.90
19168;DHT22;9716;53.114;18.040;2022-09-02T10:53:55;24.50;68.30
19168;DHT22;9716;53.114;18.040;2022-09-02T10:56:31;24.40;67.60
19168;DHT22;9716;53.114;18.040;2022-09-02T10:59:07;24.30;66.90
19168;DHT22;9716;53.114;18.040;2022-09-02T11:01:42;24.10;66.90
19168;DHT22;9716;53.114;18.040;2022-09-02T11:04:17;23.90;67.50
19168;DHT22;9716;53.114;18.040;2022-09-02T11:06:54;23.70;68.50
19168;DHT22;9716;53.114;18.040;2022-09-02T11:09:35;23.70;68.30
19168;DHT22;9716;53.114;18.040;2022-09-02T11:12:08;23.60;67.90
19168;DHT22;9716;53.114;18.040;2022-09-02T11:14:47;23.70;68.10
19168;DHT22;9716;53.114;18.040;2022-09-02T11:17:23;23.60;67.50
19168;DHT22;9716;53.114;18.040;2022-09-02T11:19:57;23.50;67.40
19168;DHT22;9716;53.114;18.040;2022-09-02T11:22:35;23.30;67.90
19168;DHT22;9716;53.114;18.040;2022-09-02T11:25:13;23.30;68.20
19168;DHT22;9716;53.114;18.040;2022-09-02T11:27:47;23.10;68.10
19168;DHT22;9716;53.114;18.040;2022-09-02T11:30:19;23.10;68.60
19168;DHT22;9716;53.114;18.040;2022-09-02T11:32:54;23.00;68.50
19168;DHT22;9716;53.114;18.040;2022-09-02T11:35:34;23.00;68.50
19168;DHT22;9716;53.114;18.040;2022-09-02T11:38:26;23.00;67.70
19168;DHT22;9716;53.114;18.040;2022-09-02T11:41:24;22.90;67.20
19168;DHT22;9716;53.114;18.040;2022-09-02T11:44:36;22.80;67.50
19168;DHT22;9716;53.114;18.040;2022-09-02T11:47:47;22.60;67.70
19168;DHT22;9716;53.114;18.040;2022-09-02T11:50:44;22.70;67.90
19168;DHT22;9716;53.114;18.040;2022-09-02T11:53:22;22.80;67.60
19168;DHT22;9716;53.114;18.040;2022-09-02T11:55:57;22.80;67.90
19168;DHT22;9716;53.114;18.040;2022-09-02T11:58:35;22.90;68.20
19168;DHT22;9716;53.114;18.040;2022-09-02T12:01:26;22.90;68.10
19168;DHT22;9716;53.114;18.040;2022-09-02T12:04:02;23.00;66.80
19168;DHT22;9716;53.114;18.040;2022-09-02T12:07:23;23.00;66.30
19168;DHT22;9716;53.114;18.040;2022-09-02T12:09:55;23.00;65.50
19168;DHT22;9716;53.114;18.040;2022-09-02T12:13:02;22.90;65.00
19168;DHT22;9716;53.114;18.040;2022-09-02T12:15:36;22.70;65.00
19168;DHT22;9716;53.114;18.040;2022-09-02T12:18:13;22.60;65.40
19168;DHT22;9716;53.114;18.040;2022-09-02T12:21:05;22.50;65.70
19168;DHT22;9716;53.114;18.040;2022-09-02T12:24:09;22.50;65.90
19168;DHT22;9716;53.114;18.040;2022-09-02T12:29:44;22.50;65.40
19168;DHT22;9716;53.114;18.040;2022-09-02T12:35:52;22.60;65.80
19168;DHT22;9716;53.114;18.040;2022-09-02T12:38:23;22.60;65.80
19168;DHT22;9716;53.114;18.040;2022-09-02T12:41:20;22.80;66.00
19168;DHT22;9716;53.114;18.040;2022-09-02T12:46:47;22.80;66.50
19168;DHT22;9716;53.114;18.040;2022-09-02T12:49:32;22.80;66.60
19168;DHT22;9716;53.114;18.040;2022-09-02T12:52:04;22.80;66.50
19168;DHT22;9716;53.114;18.040;2022-09-02T12:54:41;22.80;66.50
19168;DHT22;9716;53.114;18.040;2022-09-02T12:57:16;22.80;66.50
19168;DHT22;9716;53.114;18.040;2022-09-02T12:59:46;22.60;66.60
19168;DHT22;9716;53.114;18.040;2022-09-02T13:02:25;22.60;66.80
19168;DHT22;9716;53.114;18.040;2022-09-02T13:05:06;22.50;66.80
19168;DHT22;9716;53.114;18.040;2022-09-02T13:08:13;22.40;66.90
19168;DHT22;9716;53.114;18.040;2022-09-02T13:10:55;22.40;67.30
19168;DHT22;9716;53.114;18.040;2022-09-02T13:13:49;22.20;67.50
19168;DHT22;9716;53.114;18.040;2022-09-02T13:16:32;22.20;67.80
19168;DHT22;9716;53.114;18.040;2022-09-02T13:19:32;22.00;67.80
19168;DHT22;9716;53.114;18.040;2022-09-02T13:22:37;21.90;67.50
19168;DHT22;9716;53.114;18.040;2022-09-02T13:25:39;21.80;68.10
19168;DHT22;9716;53.114;18.040;2022-09-02T13:31:19;21.70;68.50
19168;DHT22;9716;53.114;18.040;2022-09-02T13:33:57;21.60;68.50
19168;DHT22;9716;53.114;18.040;2022-09-02T13:36:28;21.60;68.80
19168;DHT22;9716;53.114;18.040;2022-09-02T13:39:09;21.50;68.80
19168;DHT22;9716;53.114;18.040;2022-09-02T13:41:39;21.50;69.00
19168;DHT22;9716;53.114;18.040;2022-09-02T13:44:10;21.50;69.10
19168;DHT22;9716;53.114;18.040;2022-09-02T13:46:51;21.60;69.50
19168;DHT22;9716;53.114;18.040;2022-09-02T13:49:23;21.70;69.90
19168;DHT22;9716;53.114;18.040;2022-09-02T13:51:54;21.80;69.70
19168;DHT22;9716;53.114;18.040;2022-09-02T13:54:29;21.90;69.50
19168;DHT22;9716;53.114;18.040;2022-09-02T13:57:01;22.00;68.60
19168;DHT22;9716;53.114;18.040;2022-09-02T13:59:36;22.10;68.00
19168;DHT22;9716;53.114;18.040;2022-09-02T14:02:25;22.20;67.60
19168;DHT22;9716;53.114;18.040;2022-09-02T14:04:57;22.20;67.50
19168;DHT22;9716;53.114;18.040;2022-09-02T14:07:31;22.30;67.40
19168;DHT22;9716;53.114;18.040;2022-09-02T14:10:03;22.30;67.30
19168;DHT22;9716;53.114;18.040;2022-09-02T14:12:35;22.20;67.00
19168;DHT22;9716;53.114;18.040;2022-09-02T14:15:07;22.20;66.80
19168;DHT22;9716;53.114;18.040;2022-09-02T14:17:37;22.00;66.80
19168;DHT22;9716;53.114;18.040;2022-09-02T14:20:16;21.90;67.10
19168;DHT22;9716;53.114;18.040;2022-09-02T14:22:52;21.90;67.50
19168;DHT22;9716;53.114;18.040;2022-09-02T14:25:22;21.80;67.80
19168;DHT22;9716;53.114;18.040;2022-09-02T14:27:55;21.70;68.20
19168;DHT22;9716;53.114;18.040;2022-09-02T14:30:31;21.70;68.70
19168;DHT22;9716;53.114;18.040;2022-09-02T14:33:23;21.60;68.90
19168;DHT22;9716;53.114;18.040;2022-09-02T14:36:00;21.70;69.40
19168;DHT22;9716;53.114;18.040;2022-09-02T14:38:31;21.60;69.50
19168;DHT22;9716;53.114;18.040;2022-09-02T14:41:03;21.70;69.70
19168;DHT22;9716;53.114;18.040;2022-09-02T14:43:40;21.70;69.80
19168;DHT22;9716;53.114;18.040;2022-09-02T14:46:24;21.70;70.00
19168;DHT22;9716;53.114;18.040;2022-09-02T14:49:00;21.60;70.10
19168;DHT22;9716;53.114;18.040;2022-09-02T14:51:38;21.60;70.40
19168;DHT22;9716;53.114;18.040;2022-09-02T14:54:07;21.50;70.50
19168;DHT22;9716;53.114;18.040;2022-09-02T14:56:46;21.50;70.70
19168;DHT22;9716;53.114;18.040;2022-09-02T14:59:15;21.40;70.70
19168;DHT22;9716;53.114;18.040;2022-09-02T15:01:46;21.40;70.90
19168;DHT22;9716;53.114;18.040;2022-09-02T15:04:16;21.40;71.10
19168;DHT22;9716;53.114;18.040;2022-09-02T15:06:46;21.30;71.40
19168;DHT22;9716;53.114;18.040;2022-09-02T15:09:15;21.30;71.70
19168;DHT22;9716;53.114;18.040;2022-09-02T15:11:47;21.30;71.80
19168;DHT22;9716;53.114;18.040;2022-09-02T15:14:16;21.20;71.80
19168;DHT22;9716;53.114;18.040;2022-09-02T15:16:45;21.20;71.90
19168;DHT22;9716;53.114;18.040;2022-09-02T15:19:16;21.20;72.00
19168;DHT22;9716;53.114;18.040;2022-09-02T15:21:44;21.10;71.80
19168;DHT22;9716;53.114;18.040;2022-09-02T15:24:13;21.00;72.00
19168;DHT22;9716;53.114;18.040;2022-09-02T15:26:41;21.00;72.20
19168;DHT22;9716;53.114;18.040;2022-09-02T15:29:10;20.90;72.50
19168;DHT22;9716;53.114;18.040;2022-09-02T15:31:40;20.80;72.70
19168;DHT22;9716;53.114;18.040;2022-09-02T15:34:08;20.80;72.90
19168;DHT22;9716;53.114;18.040;2022-09-02T15:36:38;20.80;73.10
19168;DHT22;9716;53.114;18.040;2022-09-02T15:39:07;20.70;73.30
19168;DHT22;9716;53.114;18.040;2022-09-02T15:41:35;20.70;73.50
19168;DHT22;9716;53.114;18.040;2022-09-02T15:44:04;20.60;73.80
19168;DHT22;9716;53.114;18.040;2022-09-02T15:46:34;20.60;74.00
19168;DHT22;9716;53.114;18.040;2022-09-02T15:49:05;20.60;74.20
19168;DHT22;9716;53.114;18.040;2022-09-02T15:51:35;20.60;74.40
19168;DHT22;9716;53.114;18.040;2022-09-02T15:54:07;20.60;74.60
19168;DHT22;9716;53.114;18.040;2022-09-02T15:56:43;20.50;74.70
19168;DHT22;9716;53.114;18.040;2022-09-02T15:59:13;20.50;74.80
19168;DHT22;9716;53.114;18.040;2022-09-02T16:01:44;20.50;74.90
19168;DHT22;9716;53.114;18.040;2022-09-02T16:04:13;20.40;75.00
19168;DHT22;9716;53.114;18.040;2022-09-02T16:06:45;20.40;75.20
19168;DHT22;9716;53.114;18.040;2022-09-02T16:09:16;20.30;75.50
19168;DHT22;9716;53.114;18.040;2022-09-02T16:11:46;20.20;75.60
19168;DHT22;9716;53.114;18.040;2022-09-02T16:14:15;20.20;75.90
19168;DHT22;9716;53.114;18.040;2022-09-02T16:16:48;20.20;75.90
19168;DHT22;9716;53.114;18.040;2022-09-02T16:19:18;20.20;76.20
19168;DHT22;9716;53.114;18.040;2022-09-02T16:21:47;20.10;76.20